Terminal Aerodrome Forecast
Issued by NWS Charleston, WV

Home | Current Version | Previous Version | Text Only | Print | Product List | Glossary On
Versions: 1 2 3 4 5 6 7 8 9 10 11 12 13 14 15 16 17 18 19 20
000
FTUS41 KRLX 260200 AAA
TAFCRW
TAF AMD
KCRW 260239Z 2603/2624 33004KT P6SM FEW050 SCT200
     FM260700 04004KT 6SM -RA BR OVC045
     FM260900 05004KT 3SM -RASN BR OVC035
     FM261100 00000KT 1SM -RASN BR OVC025
     FM261300 00000KT 1SM -SN BR OVC015
     FM261500 00000KT 3SM -SN BR OVC008
     FM261800 00000KT 6SM -SHRASN OVC012=

USA.gov is the U.S. government's official web portal to all federal, state and local government web resources and services.